sensor_id;sensor_type;location;lat;lon;timestamp;pressure;altitude;pressure_sealevel;temperature;humidity
69593;BME280;56796;50.122;14.468;2023-11-19T00:03:33;982.14;;;2.63;94.15
69593;BME280;56796;50.122;14.468;2023-11-19T00:22:59;981.64;;;2.47;96.62
69593;BME280;56796;50.122;14.468;2023-11-19T00:42:24;981.34;;;2.33;98.14
69593;BME280;56796;50.122;14.468;2023-11-19T01:01:48;980.97;;;2.31;98.92
69593;BME280;56796;50.122;14.468;2023-11-19T01:21:13;980.62;;;2.33;99.39
69593;BME280;56796;50.122;14.468;2023-11-19T01:40:40;980.17;;;2.35;99.93
69593;BME280;56796;50.122;14.468;2023-11-19T02:00:06;979.75;;;2.47;100
69593;BME280;56796;50.122;14.468;2023-11-19T02:19:32;979.37;;;2.53;100
69593;BME280;56796;50.122;14.468;2023-11-19T02:38:58;979.05;;;2.59;100
69593;BME280;56796;50.122;14.468;2023-11-19T02:58:25;978.86;;;2.72;100
69593;BME280;56796;50.122;14.468;2023-11-19T03:17:51;978.42;;;2.7;100
69593;BME280;56796;50.122;14.468;2023-11-19T03:37:16;978.22;;;2.73;100
69593;BME280;56796;50.122;14.468;2023-11-19T03:56:42;977.76;;;2.75;100
69593;BME280;56796;50.122;14.468;2023-11-19T04:16:09;977.56;;;2.76;100
69593;BME280;56796;50.122;14.468;2023-11-19T04:35:35;977.13;;;2.75;100
69593;BME280;56796;50.122;14.468;2023-11-19T04:55:01;976.72;;;2.74;100
69593;BME280;56796;50.122;14.468;2023-11-19T05:14:28;976.23;;;2.72;100
69593;BME280;56796;50.122;14.468;2023-11-19T05:33:54;976.05;;;2.8;100
69593;BME280;56796;50.122;14.468;2023-11-19T05:53:20;975.82;;;2.85;100
69593;BME280;56796;50.122;14.468;2023-11-19T06:12:46;975.62;;;2.84;100
69593;BME280;56796;50.122;14.468;2023-11-19T06:32:13;975.37;;;2.94;100
69593;BME280;56796;50.122;14.468;2023-11-19T06:51:41;975.54;;;3.09;100
69593;BME280;56796;50.122;14.468;2023-11-19T07:11:06;975.32;;;3.31;100
69593;BME280;56796;50.122;14.468;2023-11-19T07:30:33;975.21;;;3.5;100
69593;BME280;56796;50.122;14.468;2023-11-19T07:49:58;975.28;;;3.65;100
69593;BME280;56796;50.122;14.468;2023-11-19T08:09:24;975.31;;;3.71;100
69593;BME280;56796;50.122;14.468;2023-11-19T08:28:50;974.87;;;3.86;100
69593;BME280;56796;50.122;14.468;2023-11-19T08:48:17;974.99;;;4.11;100
69593;BME280;56796;50.122;14.468;2023-11-19T09:07:43;975;;;4.28;100
69593;BME280;56796;50.122;14.468;2023-11-19T09:27:11;974.84;;;4.94;100
69593;BME280;56796;50.122;14.468;2023-11-19T09:46:40;974.77;;;5.99;100
69593;BME280;56796;50.122;14.468;2023-11-19T10:06:09;974.47;;;6.62;100
69593;BME280;56796;50.122;14.468;2023-11-19T10:25:40;974.28;;;8.28;99.05
69593;BME280;56796;50.122;14.468;2023-11-19T11:04:37;973.96;;;9.6;99.5
69593;BME280;56796;50.122;14.468;2023-11-19T11:24:18;973.59;;;14.73;84.27
69593;BME280;56796;50.122;14.468;2023-11-19T11:43:54;973.83;;;13.46;79.58
69593;BME280;56796;50.122;14.468;2023-11-19T12:03:32;973.67;;;16.69;68.98
69593;BME280;56796;50.122;14.468;2023-11-19T12:22:56;973.63;;;13.05;76.88
69593;BME280;56796;50.122;14.468;2023-11-19T12:42:11;973.44;;;12.66;82.55
69593;BME280;56796;50.122;14.468;2023-11-19T13:21:09;973.09;;;12.1;81.18
69593;BME280;56796;50.122;14.468;2023-11-19T13:40:27;973.02;;;11.48;85.18
69593;BME280;56796;50.122;14.468;2023-11-19T13:59:52;972.93;;;11.38;86.61
69593;BME280;56796;50.122;14.468;2023-11-19T14:19:08;973.09;;;11.15;88.84
69593;BME280;56796;50.122;14.468;2023-11-19T14:38:33;973.14;;;10.72;91.51
69593;BME280;56796;50.122;14.468;2023-11-19T14:57:58;973.24;;;10.6;91.93
69593;BME280;56796;50.122;14.468;2023-11-19T15:17:23;973.55;;;10.4;93.6
69593;BME280;56796;50.122;14.468;2023-11-19T15:36:49;973.51;;;9.59;96.29
69593;BME280;56796;50.122;14.468;2023-11-19T15:56:13;973.41;;;9.12;97.92
69593;BME280;56796;50.122;14.468;2023-11-19T16:15:37;973.52;;;8.75;100
69593;BME280;56796;50.122;14.468;2023-11-19T16:35:05;973.55;;;8.79;100
69593;BME280;56796;50.122;14.468;2023-11-19T16:54:28;973.45;;;8.83;100
69593;BME280;56796;50.122;14.468;2023-11-19T17:13:57;973.75;;;8.47;100
69593;BME280;56796;50.122;14.468;2023-11-19T17:33:16;973.7;;;8.27;100
69593;BME280;56796;50.122;14.468;2023-11-19T17:52:41;973.73;;;8.14;100
69593;BME280;56796;50.122;14.468;2023-11-19T18:12:07;973.69;;;8.24;99.98
69593;BME280;56796;50.122;14.468;2023-11-19T18:31:33;973.61;;;8.54;98.19
69593;BME280;56796;50.122;14.468;2023-11-19T18:51:00;973.64;;;8.38;97.92
69593;BME280;56796;50.122;14.468;2023-11-19T19:10:28;973.66;;;8.6;97.97
69593;BME280;56796;50.122;14.468;2023-11-19T19:29:58;973.87;;;8.85;95.9
69593;BME280;56796;50.122;14.468;2023-11-19T19:49:17;973.9;;;9.01;93.8
69593;BME280;56796;50.122;14.468;2023-11-19T20:08:44;973.84;;;9.08;92.45
69593;BME280;56796;50.122;14.468;2023-11-19T20:28:11;973.85;;;9.06;92.46
69593;BME280;56796;50.122;14.468;2023-11-19T20:47:37;973.93;;;9.17;92.98
69593;BME280;56796;50.122;14.468;2023-11-19T21:07:05;974.09;;;9.14;93.2
69593;BME280;56796;50.122;14.468;2023-11-19T21:26:31;974.08;;;9.18;93.56
69593;BME280;56796;50.122;14.468;2023-11-19T21:45:58;974.15;;;9.34;92.42
69593;BME280;56796;50.122;14.468;2023-11-19T22:05:25;974;;;9.37;91.77
69593;BME280;56796;50.122;14.468;2023-11-19T22:24:52;973.81;;;9.38;91
69593;BME280;56796;50.122;14.468;2023-11-19T22:44:19;973.91;;;9.38;90.3
69593;BME280;56796;50.122;14.468;2023-11-19T23:03:46;973.89;;;9.41;89.23
69593;BME280;56796;50.122;14.468;2023-11-19T23:23:14;973.98;;;9.41;88.68
69593;BME280;56796;50.122;14.468;2023-11-19T23:42:40;973.92;;;9.47;88.33
